Kenneth, Minnesota
Current Conditions -  °F | °C
As of 2:54 AM on Monday 20 Oct 2014 (Local Time) from KLYV Reporting Station
Clear Clear  
Wind Chill: 43°   Ceiling: Unl
Heat Index: 43°   Visibility: 10mi
Dew Point: 36°   Wind: 3mph
Humidity: 76%   Direction: 330°NNW
Pressure: 30.01"   Gusts: NA
Location:  43.75°N, 96.07°W
Report Text: KLYV 200754Z AUTO 33003KT 10SM CLR 06/02 A3001 RMK AO2
Loading
Personal Weather Stations






























Interactive Weather Map New forecast layout! Learn more

10-Day Weather Forecast

Advertisements
Track Severe Weather on mobile